Time;durP1;ratioP1;P1;durP2;ratioP2;P2;SDS_P1;SDS_P2;PMS_P1;PMS_P2;Temp;Humidity;BMP_temperature;BMP_pressure;BME280_temperature;BME280_humidity;BME280_pressure;Samples;Min_cycle;Max_cycle;Signal;HPM_P1;HPM_P2
2022/04/13 00:01:05;;;;;;;2.80;1.60;;;10.80;1.00;;;;;;5075032;28;20616;-80
2022/04/13 00:03:31;;;;;;;3.43;2.17;;;10.90;1.00;;;;;;5075036;28;20165;-80
2022/04/13 00:05:57;;;;;;;4.07;2.30;;;10.90;1.00;;;;;;5074741;28;20700;-80
2022/04/13 00:08:22;;;;;;;4.33;1.53;;;10.90;1.00;;;;;;5073347;28;20225;-80
2022/04/13 00:10:48;;;;;;;2.77;2.20;;;10.80;1.00;;;;;;5074840;28;20179;-80
2022/04/13 00:13:13;;;;;;;3.23;1.97;;;10.80;1.00;;;;;;5073505;28;20640;-80
2022/04/13 00:15:40;;;;;;;3.20;1.60;;;10.70;1.00;;;;;;5074800;28;20261;-80
2022/04/13 00:18:07;;;;;;;3.30;1.70;;;10.70;1.00;;;;;;5074280;28;20266;-79
2022/04/13 00:20:33;;;;;;;3.07;1.83;;;10.70;1.00;;;;;;5074691;28;20415;-80
2022/04/13 00:22:59;;;;;;;6.10;2.10;;;10.80;1.00;;;;;;5074256;28;20945;-81
2022/04/13 00:25:24;;;;;;;5.40;1.87;;;10.70;1.00;;;;;;5074363;28;20408;-79
2022/04/13 00:27:50;;;;;;;4.07;1.60;;;10.60;1.00;;;;;;5074558;28;20174;-79
2022/04/13 00:30:15;;;;;;;3.07;2.00;;;10.60;1.00;;;;;;5074561;28;20191;-80
2022/04/13 00:32:41;;;;;;;4.00;1.60;;;10.70;1.00;;;;;;5074433;28;20215;-80
2022/04/13 00:35:07;;;;;;;4.30;2.00;;;10.70;1.00;;;;;;5074347;28;20175;-80
2022/04/13 00:37:32;;;;;;;5.00;3.03;;;10.60;1.00;;;;;;5074107;28;20246;-79
2022/04/13 00:39:58;;;;;;;7.33;2.77;;;10.70;1.00;;;;;;5073051;28;20188;-79
2022/04/13 00:42:24;;;;;;;6.20;2.40;;;10.70;1.00;;;;;;5074163;28;20483;-79
2022/04/13 00:44:49;;;;;;;3.47;2.17;;;10.70;1.00;;;;;;5072938;28;20165;-79
2022/04/13 00:47:15;;;;;;;5.13;2.60;;;10.60;1.00;;;;;;5074135;28;20169;-80
2022/04/13 00:49:41;;;;;;;5.87;1.57;;;10.60;1.00;;;;;;5074076;28;20178;-79
2022/04/13 00:52:07;;;;;;;3.83;1.70;;;10.60;1.00;;;;;;5073999;28;20797;-79
2022/04/13 00:54:33;;;;;;;6.03;1.93;;;10.60;1.00;;;;;;5073702;28;20180;-80
2022/04/13 00:57:06;;;;;;;4.53;2.40;;;10.50;1.00;;;;;;5073816;28;20410;-80
2022/04/13 00:59:35;;;;;;;4.80;1.87;;;10.50;1.00;;;;;;5073979;28;20470;-80
2022/04/13 01:02:01;;;;;;;3.03;1.73;;;10.40;1.00;;;;;;5073772;28;20477;-79
2022/04/13 01:04:30;;;;;;;4.40;1.83;;;10.50;1.00;;;;;;5073756;28;20987;-80
2022/04/13 01:06:56;;;;;;;5.27;2.33;;;10.40;1.00;;;;;;5073548;28;20454;-80
2022/04/13 01:09:25;;;;;;;4.10;1.90;;;10.50;1.00;;;;;;5073265;28;20407;-79
2022/04/13 01:11:50;;;;;;;4.30;2.20;;;10.50;1.00;;;;;;5073700;28;20458;-79
2022/04/13 01:14:16;;;;;;;3.90;2.07;;;10.40;1.00;;;;;;5073540;28;20474;-79
2022/04/13 01:16:41;;;;;;;3.03;2.60;;;10.40;1.00;;;;;;5073521;28;20176;-79
2022/04/13 01:19:07;;;;;;;2.33;1.60;;;10.40;1.00;;;;;;5073551;28;20171;-79
2022/04/13 01:21:48;;;;;;;3.87;2.80;;;10.30;1.00;;;;;;5073421;28;20251;-79
2022/04/13 01:24:15;;;;;;;5.83;1.93;;;10.30;1.00;;;;;;5073193;28;20465;-80
2022/04/13 01:26:41;;;;;;;6.77;2.97;;;10.40;1.00;;;;;;5073348;28;20412;-80
2022/04/13 01:29:07;;;;;;;4.20;1.50;;;10.40;1.00;;;;;;5073119;28;20413;-80
2022/04/13 01:31:33;;;;;;;4.80;2.17;;;10.40;1.00;;;;;;5072743;28;20414;-79
2022/04/13 01:33:59;;;;;;;3.70;1.80;;;10.40;1.00;;;;;;5073247;28;20471;-80
2022/04/13 01:36:26;;;;;;;3.97;1.90;;;10.40;1.00;;;;;;5073246;28;20406;-80
2022/04/13 01:38:51;;;;;;;6.00;2.50;;;10.40;1.00;;;;;;5072737;28;20458;-80
2022/04/13 01:41:17;;;;;;;6.00;2.50;;;10.40;1.00;;;;;;5072971;28;20449;-80
2022/04/13 01:43:43;;;;;;;5.73;2.70;;;10.40;1.00;;;;;;5073143;28;20188;-79
2022/04/13 01:46:08;;;;;;;3.90;2.07;;;10.40;1.00;;;;;;5073088;28;20200;-80
2022/04/13 01:48:34;;;;;;;3.13;1.93;;;10.40;1.00;;;;;;5073060;28;20200;-80
2022/04/13 01:50:59;;;;;;;6.37;2.40;;;10.40;1.00;;;;;;5071672;28;20181;-79
2022/04/13 01:53:26;;;;;;;4.87;2.63;;;10.40;1.00;;;;;;5072700;28;20207;-80
2022/04/13 01:55:53;;;;;;;4.70;2.60;;;10.40;1.00;;;;;;5073020;28;20172;-80
2022/04/13 01:58:22;;;;;;;6.30;2.70;;;10.40;1.00;;;;;;5072873;28;20940;-80
2022/04/13 02:00:53;;;;;;;5.07;2.70;;;10.40;1.00;;;;;;5072888;28;20423;-79
2022/04/13 02:03:20;;;;;;;5.50;2.70;;;10.40;1.00;;;;;;5072988;28;20459;-79
2022/04/13 02:05:46;;;;;;;5.87;2.53;;;10.30;1.00;;;;;;5072961;28;20422;-79
2022/04/13 02:08:12;;;;;;;5.63;2.20;;;10.40;1.00;;;;;;5072273;28;20457;-79
2022/04/13 02:10:37;;;;;;;5.10;3.57;;;10.30;1.00;;;;;;5072766;28;20579;-79
2022/04/13 02:13:03;;;;;;;3.87;2.43;;;10.40;1.00;;;;;;5072702;28;20243;-79
2022/04/13 02:15:28;;;;;;;3.80;2.70;;;10.40;1.00;;;;;;5072754;28;20182;-79
2022/04/13 02:17:54;;;;;;;4.40;2.27;;;10.40;1.00;;;;;;5072767;28;20184;-79
2022/04/13 02:20:19;;;;;;;5.30;2.50;;;10.30;1.00;;;;;;5072680;28;20242;-79
2022/04/13 02:22:46;;;;;;;3.80;2.27;;;10.30;1.00;;;;;;5072297;28;20174;-79
2022/04/13 02:25:12;;;;;;;4.20;2.30;;;10.30;1.00;;;;;;5072640;28;20268;-79
2022/04/13 02:27:37;;;;;;;4.53;2.80;;;10.20;1.00;;;;;;5072575;28;20464;-79
2022/04/13 02:30:04;;;;;;;4.80;1.93;;;10.20;1.00;;;;;;5072533;28;20442;-79
2022/04/13 02:32:30;;;;;;;5.47;2.20;;;10.20;1.00;;;;;;5072365;28;20206;-79
2022/04/13 02:34:55;;;;;;;3.43;2.33;;;10.20;1.00;;;;;;5071107;28;20419;-79
2022/04/13 02:37:21;;;;;;;4.03;2.60;;;10.10;1.00;;;;;;5071765;28;20228;-79
2022/04/13 02:39:46;;;;;;;4.90;2.80;;;10.10;1.00;;;;;;5071362;28;20183;-79
2022/04/13 02:42:14;;;;;;;4.97;2.00;;;10.10;1.00;;;;;;5074234;28;20183;-79
2022/04/13 02:44:41;;;;;;;6.00;2.87;;;10.00;1.00;;;;;;5075841;28;20220;-79
2022/04/13 02:47:07;;;;;;;7.40;3.67;;;10.00;1.00;;;;;;5076478;28;20915;-79
2022/04/13 02:49:32;;;;;;;3.40;2.10;;;10.10;1.00;;;;;;5076487;28;20413;-79
2022/04/13 02:51:58;;;;;;;3.77;2.30;;;10.10;1.00;;;;;;5075008;28;20175;-79
2022/04/13 02:54:23;;;;;;;3.90;2.67;;;10.10;1.00;;;;;;5075812;28;20564;-79
2022/04/13 02:56:49;;;;;;;3.57;2.70;;;10.20;1.00;;;;;;5074973;28;20173;-79
2022/04/13 02:59:14;;;;;;;3.90;1.80;;;10.20;1.00;;;;;;5076153;28;20179;-80
2022/04/13 03:01:40;;;;;;;8.37;2.97;;;10.10;1.00;;;;;;5076143;28;20167;-79
2022/04/13 03:04:06;;;;;;;4.50;2.53;;;10.10;1.00;;;;;;5076118;28;20202;-80
2022/04/13 03:06:31;;;;;;;6.03;2.60;;;10.10;1.00;;;;;;5075910;28;20228;-81
2022/04/13 03:08:58;;;;;;;6.23;2.60;;;10.10;1.00;;;;;;5075632;28;20577;-81
2022/04/13 03:11:24;;;;;;;3.03;2.17;;;10.00;1.00;;;;;;5075914;28;20176;-80
2022/04/13 03:13:49;;;;;;;4.30;2.43;;;10.10;1.00;;;;;;5075905;28;20972;-81
2022/04/13 03:16:15;;;;;;;5.27;2.50;;;10.10;1.00;;;;;;5074612;28;20429;-81
2022/04/13 03:18:40;;;;;;;4.70;2.60;;;10.10;1.00;;;;;;5075973;28;20175;-79
2022/04/13 03:21:06;;;;;;;3.93;2.27;;;10.10;1.00;;;;;;5075761;28;20540;-81
2022/04/13 03:23:31;;;;;;;5.87;2.50;;;10.10;1.00;;;;;;5075467;28;20265;-81
2022/04/13 03:25:57;;;;;;;4.23;2.90;;;10.10;1.00;;;;;;5074514;28;20513;-80
2022/04/13 03:28:23;;;;;;;9.07;2.70;;;10.10;1.00;;;;;;5075649;28;20175;-81
2022/04/13 03:30:50;;;;;;;5.07;2.17;;;10.00;1.00;;;;;;5074445;28;20589;-81
2022/04/13 03:33:17;;;;;;;4.80;3.40;;;10.10;1.00;;;;;;5075536;28;20829;-81
2022/04/13 03:35:43;;;;;;;6.20;3.10;;;10.00;1.00;;;;;;5075520;28;20405;-81
2022/04/13 03:38:09;;;;;;;6.53;3.70;;;10.00;1.00;;;;;;5075064;28;20412;-81
2022/04/13 03:40:34;;;;;;;4.47;2.27;;;10.00;1.00;;;;;;5075536;28;20284;-81
2022/04/13 03:43:00;;;;;;;5.47;2.80;;;10.00;1.00;;;;;;5075549;28;20418;-82
2022/04/13 03:45:25;;;;;;;3.50;1.83;;;9.90;1.00;;;;;;5075523;28;20297;-82
2022/04/13 03:47:53;;;;;;;4.17;2.13;;;9.90;1.00;;;;;;5075495;28;20167;-81
2022/04/13 03:50:19;;;;;;;5.87;2.70;;;9.90;3.00;;;;;;5075434;28;20193;-81
2022/04/13 03:52:46;;;;;;;4.90;3.30;;;9.90;8.20;;;;;;5073845;28;20953;-80
2022/04/13 03:55:12;;;;;;;5.43;3.03;;;9.90;8.40;;;;;;5075252;28;20169;-81
2022/04/13 03:57:38;;;;;;;3.90;3.00;;;9.80;12.20;;;;;;5075259;28;20471;-81
2022/04/13 04:00:08;;;;;;;4.70;3.20;;;9.80;17.20;;;;;;5075219;28;20165;-81
2022/04/13 04:02:38;;;;;;;6.63;3.30;;;9.80;22.50;;;;;;5074958;28;20421;-80
2022/04/13 04:05:04;;;;;;;5.60;3.90;;;9.70;25.50;;;;;;5074931;28;20445;-81
2022/04/13 04:07:29;;;;;;;4.73;2.20;;;9.70;31.00;;;;;;5074321;28;20818;-80
2022/04/13 04:09:55;;;;;;;5.27;2.87;;;9.70;40.40;;;;;;5073681;28;20404;-80
2022/04/13 04:12:21;;;;;;;5.73;3.17;;;9.60;51.90;;;;;;5074866;28;20171;-80
2022/04/13 04:14:46;;;;;;;5.70;2.93;;;9.50;66.80;;;;;;5074792;28;20626;-80
2022/04/13 04:17:12;;;;;;;4.93;2.83;;;9.50;90.80;;;;;;5074784;28;20172;-81
2022/04/13 04:19:37;;;;;;;5.37;2.63;;;9.60;99.90;;;;;;5074756;28;20182;-80
2022/04/13 04:22:03;;;;;;;5.10;2.93;;;9.50;99.90;;;;;;5074350;28;20165;-80
2022/04/13 04:24:29;;;;;;;7.00;3.50;;;9.40;99.90;;;;;;5074630;28;20744;-80
2022/04/13 04:26:55;;;;;;;5.97;2.83;;;9.30;99.90;;;;;;5074647;28;20190;-81
2022/04/13 04:29:20;;;;;;;6.53;3.70;;;9.30;99.90;;;;;;5074519;28;20158;-80
2022/04/13 04:31:53;;;;;;;7.73;3.70;;;9.30;99.90;;;;;;5074568;28;20927;-79
2022/04/13 04:34:22;;;;;;;5.70;3.10;;;9.30;99.90;;;;;;5074376;28;20213;-79
2022/04/13 04:36:47;;;;;;;5.83;3.43;;;9.20;99.90;;;;;;5074112;28;20497;-78
2022/04/13 04:39:13;;;;;;;6.50;3.17;;;9.20;99.90;;;;;;5074254;28;20508;-79
2022/04/13 04:41:40;;;;;;;3.77;2.73;;;9.10;99.90;;;;;;5074357;28;20167;-79
2022/04/13 04:44:07;;;;;;;4.90;3.00;;;9.20;99.90;;;;;;5072876;28;20482;-79
2022/04/13 04:46:32;;;;;;;7.07;2.87;;;9.20;99.90;;;;;;5074194;28;20424;-80
2022/04/13 04:48:58;;;;;;;6.27;3.70;;;9.20;99.90;;;;;;5074059;28;20820;-80
2022/04/13 04:51:23;;;;;;;3.40;2.40;;;9.10;99.90;;;;;;5074099;28;20169;-80
2022/04/13 04:53:49;;;;;;;4.07;3.47;;;9.20;99.90;;;;;;5073553;28;20201;-80
2022/04/13 04:56:15;;;;;;;9.43;2.80;;;9.20;99.90;;;;;;5073863;28;20527;-81
2022/04/13 04:58:41;;;;;;;7.30;4.00;;;9.20;99.90;;;;;;5073854;28;20174;-81
2022/04/13 05:01:07;;;;;;;6.70;3.50;;;9.20;99.90;;;;;;5073940;28;20799;-81
2022/04/13 05:03:33;;;;;;;6.13;3.03;;;9.20;99.90;;;;;;5073851;28;20453;-81
2022/04/13 05:05:59;;;;;;;7.10;3.50;;;9.30;99.90;;;;;;5073612;28;20204;-81
2022/04/13 05:08:27;;;;;;;6.07;2.83;;;9.30;99.90;;;;;;5073477;28;20474;-81
2022/04/13 05:10:53;;;;;;;6.37;3.73;;;9.30;99.90;;;;;;5073814;28;20401;-82
2022/04/13 05:13:19;;;;;;;4.90;2.93;;;9.30;99.90;;;;;;5073754;28;21039;-81
2022/04/13 05:15:47;;;;;;;5.67;3.10;;;9.30;99.90;;;;;;5073525;28;20528;-81
2022/04/13 05:18:13;;;;;;;4.33;3.50;;;9.30;99.90;;;;;;5073530;28;20782;-81
2022/04/13 05:20:39;;;;;;;6.00;2.93;;;9.40;99.90;;;;;;5073319;28;20415;-81
2022/04/13 05:23:05;;;;;;;6.73;3.70;;;9.50;99.90;;;;;;5073304;28;20183;-80
2022/04/13 05:25:30;;;;;;;7.17;3.30;;;9.50;99.90;;;;;;5073661;28;20416;-80
2022/04/13 05:27:56;;;;;;;5.67;3.07;;;9.50;99.90;;;;;;5073504;28;20212;-81
2022/04/13 05:30:22;;;;;;;7.67;4.10;;;9.40;99.90;;;;;;5073312;28;20186;-81
2022/04/13 05:32:50;;;;;;;6.83;3.30;;;9.50;99.90;;;;;;5073264;28;20192;-80
2022/04/13 05:35:19;;;;;;;8.40;3.17;;;9.50;99.90;;;;;;5073402;28;20421;-80
2022/04/13 05:37:45;;;;;;;5.63;3.57;;;9.60;99.90;;;;;;5072947;28;20465;-80
2022/04/13 05:40:11;;;;;;;6.13;4.03;;;9.70;99.90;;;;;;5073274;28;20556;-80
2022/04/13 05:42:37;;;;;;;8.20;3.83;;;9.70;99.90;;;;;;5073083;28;20424;-80
2022/04/13 05:45:03;;;;;;;7.80;4.43;;;9.70;99.90;;;;;;5073062;28;20410;-80
2022/04/13 05:47:29;;;;;;;8.83;4.43;;;9.70;99.90;;;;;;5073237;28;20215;-80
2022/04/13 05:49:55;;;;;;;6.93;4.60;;;9.70;99.90;;;;;;5073036;28;20407;-79
2022/04/13 05:52:20;;;;;;;7.47;3.40;;;9.80;99.90;;;;;;5072808;28;20422;-80
2022/04/13 05:54:46;;;;;;;7.00;3.40;;;9.80;99.90;;;;;;5073159;28;20516;-78
2022/04/13 05:57:12;;;;;;;6.47;4.20;;;9.90;99.90;;;;;;5073005;28;20253;-80
2022/04/13 05:59:38;;;;;;;5.00;3.20;;;10.00;99.90;;;;;;5073111;28;20230;-80
2022/04/13 06:02:04;;;;;;;8.13;5.07;;;10.00;99.90;;;;;;5073098;28;20415;-80
2022/04/13 06:04:29;;;;;;;6.17;3.77;;;10.20;99.90;;;;;;5072997;28;20255;-81
2022/04/13 06:06:55;;;;;;;7.27;4.10;;;10.20;99.90;;;;;;5072641;28;20461;-81
2022/04/13 06:09:23;;;;;;;6.70;3.60;;;10.30;99.90;;;;;;5072988;28;20172;-81
2022/04/13 06:11:49;;;;;;;7.90;4.50;;;10.30;99.90;;;;;;5072896;28;20233;-81
2022/04/13 06:14:15;;;;;;;6.10;3.53;;;10.30;99.90;;;;;;5072841;28;20471;-81
2022/04/13 06:16:41;;;;;;;7.03;4.63;;;10.20;99.90;;;;;;5072209;28;20411;-80
2022/04/13 06:19:06;;;;;;;7.43;4.37;;;10.20;99.90;;;;;;5072781;28;20179;-82
2022/04/13 06:21:32;;;;;;;7.50;3.63;;;10.40;99.90;;;;;;5072355;28;20177;-81
2022/04/13 06:23:58;;;;;;;6.63;4.93;;;10.50;99.90;;;;;;5072782;28;20258;-81
2022/04/13 06:26:23;;;;;;;6.30;3.87;;;10.30;99.90;;;;;;5072400;28;20245;-81
2022/04/13 06:28:49;;;;;;;7.10;3.80;;;10.40;99.90;;;;;;5072415;28;20179;-81
2022/04/13 06:31:14;;;;;;;7.30;4.60;;;10.30;99.90;;;;;;5072457;28;20165;-81
2022/04/13 06:33:40;;;;;;;5.50;4.30;;;10.50;99.90;;;;;;5072677;28;20239;-81
2022/04/13 06:36:06;;;;;;;5.77;4.03;;;10.60;99.90;;;;;;5072711;28;20266;-81
2022/04/13 06:38:32;;;;;;;9.13;3.93;;;10.70;99.90;;;;;;5070957;28;20178;-79
2022/04/13 06:40:58;;;;;;;7.30;3.07;;;11.10;87.70;;;;;;5072731;28;20194;-79
2022/04/13 06:43:23;;;;;;;9.53;4.30;;;11.10;64.00;;;;;;5072555;28;20430;-79
2022/04/13 06:45:49;;;;;;;9.97;6.13;;;11.50;56.40;;;;;;5072393;28;20165;-80
2022/04/13 06:48:15;;;;;;;6.23;4.20;;;11.50;54.80;;;;;;5072511;28;20178;-80
2022/04/13 06:50:40;;;;;;;6.13;3.70;;;11.80;33.40;;;;;;5072450;28;20759;-80
2022/04/13 06:53:06;;;;;;;7.20;4.97;;;12.30;31.10;;;;;;5071929;28;20201;-80
2022/04/13 06:55:31;;;;;;;11.57;4.27;;;12.60;18.20;;;;;;5072326;28;20628;-80
2022/04/13 06:57:57;;;;;;;6.53;5.13;;;12.80;15.40;;;;;;5072468;28;20530;-83
2022/04/13 07:00:22;;;;;;;6.70;4.93;;;12.80;7.70;;;;;;5072481;28;20176;-79
2022/04/13 07:02:48;;;;;;;5.73;3.97;;;12.70;4.20;;;;;;5072381;28;20178;-79
2022/04/13 07:05:14;;;;;;;5.67;4.20;;;13.10;2.10;;;;;;5070632;28;20166;-79
2022/04/13 07:07:39;;;;;;;7.43;4.43;;;13.00;1.00;;;;;;5069227;28;20240;-79
2022/04/13 07:10:05;;;;;;;7.17;4.13;;;12.50;1.00;;;;;;5069633;28;20212;-80
2022/04/13 07:12:35;;;;;;;4.97;3.57;;;12.50;2.80;;;;;;5070983;28;20170;-80
2022/04/13 07:15:01;;;;;;;7.47;5.50;;;12.40;1.00;;;;;;5070815;28;20535;-80
2022/04/13 07:17:27;;;;;;;7.90;5.13;;;12.60;3.20;;;;;;5078130;28;20412;-80
2022/04/13 07:19:52;;;;;;;6.40;4.70;;;12.40;2.50;;;;;;5081421;28;20954;-80
2022/04/13 07:22:18;;;;;;;7.70;4.70;;;12.50;3.90;;;;;;5082152;28;20553;-80
2022/04/13 07:24:43;;;;;;;5.17;3.67;;;12.40;6.10;;;;;;5075142;28;20291;-80
2022/04/13 07:27:09;;;;;;;6.97;5.20;;;12.50;7.60;;;;;;5072287;28;20166;-80
2022/04/13 07:29:34;;;;;;;8.40;4.50;;;12.70;7.80;;;;;;5074990;28;20207;-80
2022/04/13 07:32:00;;;;;;;6.80;4.67;;;13.80;10.60;;;;;;5075569;28;20187;-79
2022/04/13 07:34:25;;;;;;;5.50;4.47;;;14.40;1.00;;;;;;5075763;28;20207;-79
2022/04/13 07:36:51;;;;;;;10.13;5.20;;;15.00;1.00;;;;;;5075284;28;20163;-79
2022/04/13 07:39:16;;;;;;;7.90;4.90;;;15.40;1.00;;;;;;5075579;28;20169;-80
2022/04/13 07:41:42;;;;;;;6.47;3.73;;;15.00;1.00;;;;;;5075568;28;20169;-80
2022/04/13 07:44:08;;;;;;;6.23;4.33;;;16.10;1.00;;;;;;5075374;28;20172;-80
2022/04/13 07:46:33;;;;;;;10.30;5.07;;;16.20;1.00;;;;;;5075460;28;20196;-80
2022/04/13 07:48:59;;;;;;;10.60;4.47;;;16.70;1.00;;;;;;5075461;28;20643;-81
2022/04/13 07:51:24;;;;;;;7.70;5.30;;;16.20;1.00;;;;;;5074942;28;20164;-80
2022/04/13 07:53:50;;;;;;;6.10;4.40;;;16.70;1.00;;;;;;5075194;28;20209;-80
2022/04/13 07:56:15;;;;;;;6.83;4.27;;;17.90;1.00;;;;;;5075283;28;20178;-81
2022/04/13 07:58:41;;;;;;;5.90;5.23;;;17.20;1.00;;;;;;5075170;28;20204;-81
2022/04/13 08:01:06;;;;;;;7.03;4.00;;;17.30;1.00;;;;;;5075223;28;20199;-81
2022/04/13 08:03:32;;;;;;;6.00;5.10;;;17.30;1.00;;;;;;5075200;28;20166;-81
2022/04/13 08:05:58;;;;;;;7.03;5.20;;;18.40;1.00;;;;;;5075009;28;20176;-81
2022/04/13 08:08:23;;;;;;;9.53;5.00;;;19.00;1.00;;;;;;5074734;28;20179;-80
2022/04/13 08:10:49;;;;;;;8.50;5.97;;;18.90;1.00;;;;;;5074908;28;20182;-81
2022/04/13 08:13:14;;;;;;;6.80;5.53;;;18.80;1.00;;;;;;5056799;28;20316;-81
2022/04/13 08:15:40;;;;;;;10.37;5.63;;;19.00;1.00;;;;;;5057029;28;20276;-81
2022/04/13 08:18:06;;;;;;;8.27;5.17;;;19.20;1.00;;;;;;5074979;28;20164;-81
2022/04/13 08:20:31;;;;;;;6.40;5.00;;;19.60;1.00;;;;;;5074954;28;20538;-81
2022/04/13 08:22:57;;;;;;;6.97;5.20;;;19.70;1.00;;;;;;5074508;28;20249;-81
2022/04/13 08:25:23;;;;;;;12.53;5.37;;;19.30;1.00;;;;;;5074701;28;20252;-81
2022/04/13 08:27:49;;;;;;;7.23;5.30;;;19.40;1.00;;;;;;5074360;28;20175;-81
2022/04/13 08:30:14;;;;;;;5.57;4.90;;;20.60;1.00;;;;;;5074411;28;20414;-81
2022/04/13 08:32:40;;;;;;;9.37;5.40;;;20.60;1.00;;;;;;5074241;28;20207;-81
2022/04/13 08:35:09;;;;;;;8.07;6.00;;;20.80;1.00;;;;;;5074223;28;20273;-81
2022/04/13 08:37:35;;;;;;;8.77;6.10;;;20.40;1.00;;;;;;5073819;28;20168;-81
2022/04/13 08:40:00;;;;;;;8.70;6.00;;;21.50;1.00;;;;;;5073598;28;20926;-81
2022/04/13 08:42:50;;;;;;;10.33;6.77;;;22.10;1.00;;;;;;5089757;28;20177;-81
2022/04/13 08:45:25;;;;;;;8.23;5.43;;;21.60;1.00;;;;;;5074161;28;20661;-81
2022/04/13 08:47:59;;;;;;;8.13;5.70;;;22.20;1.00;;;;;;5074079;28;20489;-81
2022/04/13 08:50:29;;;;;;;8.10;6.47;;;21.60;1.00;;;;;;5073919;28;20414;-81
2022/04/13 08:52:59;;;;;;;7.43;5.43;;;21.60;1.00;;;;;;5073429;28;20970;-81
2022/04/13 08:55:26;;;;;;;7.67;6.20;;;21.60;1.00;;;;;;5073739;28;20427;-82
2022/04/13 08:58:16;;;;;;;7.40;5.50;;;21.80;1.00;;;;;;5073794;28;20442;-82
2022/04/13 09:00:49;;;;;;;7.57;6.30;;;22.40;1.00;;;;;;5073744;28;20432;-82
2022/04/13 09:03:23;;;;;;;8.43;6.77;;;22.10;1.00;;;;;;5073674;28;20415;-81
2022/04/13 09:05:54;;;;;;;9.40;6.17;;;22.60;1.00;;;;;;5073811;28;20411;-84
2022/04/13 09:08:28;;;;;;;7.97;6.50;;;22.60;1.00;;;;;;5073405;28;20411;-84
2022/04/13 09:10:54;;;;;;;9.70;8.70;;;21.10;1.00;;;;;;5073730;28;20410;-83
2022/04/13 09:13:21;;;;;;;6.30;5.70;;;20.80;1.00;;;;;;5073767;28;20471;-83
2022/04/13 09:15:48;;;;;;;7.13;6.33;;;21.40;1.00;;;;;;5080306;28;20192;-84
2022/04/13 09:18:13;;;;;;;6.63;5.90;;;22.20;1.00;;;;;;5083466;28;20438;-84
2022/04/13 09:20:39;;;;;;;8.50;6.73;;;22.80;1.00;;;;;;5082646;28;20407;-84
2022/04/13 09:23:06;;;;;;;11.80;6.50;;;23.10;1.00;;;;;;5085162;28;20173;-84
2022/04/13 09:25:33;;;;;;;8.63;7.00;;;22.90;1.00;;;;;;5079122;28;20418;-84
2022/04/13 09:28:00;;;;;;;7.67;6.80;;;22.30;1.00;;;;;;5074747;28;20485;-85
2022/04/13 09:30:27;;;;;;;6.67;6.07;;;22.00;1.00;;;;;;5073674;28;20415;-84
2022/04/13 09:32:54;;;;;;;7.90;6.30;;;21.30;1.00;;;;;;5073534;28;20458;-84
2022/04/13 09:35:20;;;;;;;8.00;6.93;;;21.10;1.00;;;;;;5073571;28;20783;-84
2022/04/13 09:37:46;;;;;;;7.50;5.83;;;21.90;1.00;;;;;;5073045;28;20804;-84
2022/04/13 09:40:32;;;;;;;7.10;6.40;;;21.90;1.00;;;;;;5073301;28;20456;-84
2022/04/13 09:43:15;;;;;;;8.10;6.37;;;22.10;1.00;;;;;;5073471;28;20465;-84
2022/04/13 09:45:50;;;;;;;11.37;6.50;;;21.90;1.00;;;;;;5073238;28;20419;-84
2022/04/13 09:48:18;;;;;;;8.17;6.40;;;22.20;1.00;;;;;;5073205;28;20730;-84
2022/04/13 09:50:45;;;;;;;6.47;5.40;;;22.60;1.00;;;;;;5072260;28;20469;-84
2022/04/13 09:53:13;;;;;;;7.63;6.70;;;21.80;1.00;;;;;;5072768;28;20463;-84
2022/04/13 09:55:44;;;;;;;8.03;6.57;;;22.10;1.00;;;;;;5073293;28;20430;-84
2022/04/13 09:58:11;;;;;;;8.23;6.93;;;23.50;1.00;;;;;;5073065;28;20698;-84
2022/04/13 10:00:37;;;;;;;8.47;7.63;;;23.80;1.00;;;;;;5072840;28;20414;-84
2022/04/13 10:03:07;;;;;;;8.00;6.70;;;23.20;1.00;;;;;;5087515;28;20790;-84
2022/04/13 10:05:33;;;;;;;8.87;7.17;;;23.10;1.00;;;;;;5072540;28;20980;-84
2022/04/13 10:08:03;;;;;;;11.53;7.57;;;24.20;1.00;;;;;;5072475;28;20478;-84
2022/04/13 10:10:29;;;;;;;7.53;5.83;;;24.10;1.00;;;;;;5072936;28;20415;-84
2022/04/13 10:12:54;;;;;;;7.63;6.13;;;24.00;1.00;;;;;;5072887;28;20471;-84
2022/04/13 10:15:20;;;;;;;8.07;6.50;;;23.50;1.00;;;;;;5073997;28;20168;-84
2022/04/13 10:17:46;;;;;;;9.67;7.03;;;24.40;1.00;;;;;;5075055;28;20208;-82
2022/04/13 10:20:11;;;;;;;10.13;6.40;;;23.40;1.00;;;;;;5075041;28;20442;-83
2022/04/13 10:23:00;;;;;;;7.57;6.00;;;23.50;1.00;;;;;;5074841;28;20161;-84
2022/04/13 10:25:27;;;;;;;7.63;6.53;;;23.20;1.00;;;;;;5074401;28;20176;-83
2022/04/13 10:27:57;;;;;;;8.60;7.07;;;23.70;1.00;;;;;;5074553;28;20498;-84
2022/04/13 10:30:34;;;;;;;8.00;5.73;;;23.40;1.00;;;;;;5075601;28;20407;-83
2022/04/13 10:33:07;;;;;;;8.03;6.23;;;23.60;1.00;;;;;;5075634;28;20450;-83
2022/04/13 10:35:35;;;;;;;7.33;6.50;;;23.30;1.00;;;;;;5075495;28;20439;-83
2022/04/13 10:38:01;;;;;;;9.63;6.70;;;24.30;1.00;;;;;;5075133;28;20399;-84
2022/04/13 10:40:30;;;;;;;10.50;5.93;;;23.90;1.00;;;;;;5075688;28;20408;-83
2022/04/13 10:43:00;;;;;;;9.00;6.50;;;22.80;1.00;;;;;;5075482;28;20415;-83
2022/04/13 10:45:30;;;;;;;14.17;7.03;;;22.10;1.00;;;;;;5075578;28;20411;-85
2022/04/13 10:47:59;;;;;;;11.57;7.10;;;22.10;1.00;;;;;;5075752;28;20419;-85
2022/04/13 10:50:41;;;;;;;7.70;6.60;;;21.90;1.00;;;;;;5057090;28;20422;-85
2022/04/13 10:53:44;;;;;;;8.17;6.17;;;22.10;1.00;;;;;;5075881;28;20639;-83
2022/04/13 10:56:11;;;;;;;8.10;5.40;;;21.50;1.00;;;;;;5053378;28;20434;-84
2022/04/13 10:59:05;;;;;;;11.10;6.07;;;21.70;1.00;;;;;;5081451;28;20440;-82
2022/04/13 11:01:51;;;;;;;7.20;5.53;;;22.20;1.00;;;;;;5084008;28;20411;-84
2022/04/13 11:04:17;;;;;;;7.80;6.30;;;23.40;1.00;;;;;;5086722;28;20394;-83
2022/04/13 11:06:44;;;;;;;9.57;7.10;;;23.70;1.00;;;;;;5083195;28;20458;-83
2022/04/13 11:09:31;;;;;;;9.13;6.60;;;24.20;1.00;;;;;;5084276;28;20164;-84
2022/04/13 11:11:58;;;;;;;7.50;5.90;;;24.00;1.00;;;;;;5084783;28;20414;-83
2022/04/13 11:14:24;;;;;;;12.00;7.63;;;23.60;1.00;;;;;;5082276;28;20462;-84
2022/04/13 11:17:15;;;;;;;9.33;6.00;;;23.50;1.00;;;;;;5083157;28;20411;-83
2022/04/13 11:19:42;;;;;;;7.17;6.47;;;24.10;1.00;;;;;;5081034;28;20969;-83
2022/04/13 11:22:15;;;;;;;8.50;6.10;;;24.60;1.00;;;;;;5084349;28;20411;-82
2022/04/13 11:24:42;;;;;;;6.70;5.53;;;24.60;1.00;;;;;;5063034;28;20411;-84
2022/04/13 11:27:10;;;;;;;8.53;7.03;;;24.60;1.00;;;;;;5084493;28;20445;-83
2022/04/13 11:29:38;;;;;;;7.57;5.93;;;25.40;1.00;;;;;;5075990;28;20464;-84
2022/04/13 11:32:04;;;;;;;10.03;6.70;;;25.60;1.00;;;;;;5057807;28;20435;-83
2022/04/13 11:34:45;;;;;;;12.40;7.57;;;25.90;1.00;;;;;;5075526;28;20474;-84
2022/04/13 11:37:15;;;;;;;8.10;6.00;;;26.20;1.00;;;;;;5075263;28;20415;-84
2022/04/13 11:40:06;;;;;;;8.37;6.10;;;26.20;1.00;;;;;;5075331;28;20426;-84
2022/04/13 11:42:34;;;;;;;11.90;6.70;;;26.10;1.00;;;;;;5075196;28;20605;-84
2022/04/13 11:45:11;;;;;;;8.77;6.33;;;26.20;1.00;;;;;;5075026;28;20748;-84
2022/04/13 11:47:50;;;;;;;10.80;7.03;;;25.90;1.00;;;;;;5056963;28;20923;-83
2022/04/13 11:50:18;;;;;;;11.37;7.10;;;26.20;1.00;;;;;;5074994;28;20407;-84
2022/04/13 11:53:04;;;;;;;11.57;6.97;;;26.00;1.00;;;;;;5074469;28;20407;-84
2022/04/13 11:55:42;;;;;;;10.77;7.20;;;26.00;1.00;;;;;;5074845;28;20510;-84
2022/04/13 11:58:07;;;;;;;12.70;7.70;;;26.10;1.00;;;;;;5074956;28;20411;-84
2022/04/13 12:00:42;;;;;;;9.57;6.60;;;26.00;1.00;;;;;;5074644;28;20422;-84
2022/04/13 12:03:16;;;;;;;11.03;7.20;;;26.20;1.00;;;;;;5074806;28;20211;-84
2022/04/13 12:05:43;;;;;;;9.40;6.57;;;26.40;1.00;;;;;;5074255;28;20419;-84
2022/04/13 12:08:15;;;;;;;10.33;6.40;;;26.80;1.00;;;;;;5074368;28;20982;-84
2022/04/13 12:10:55;;;;;;;7.60;5.20;;;25.90;1.00;;;;;;5074613;28;20420;-85
2022/04/13 12:13:21;;;;;;;9.20;7.10;;;26.80;1.00;;;;;;5082661;28;20446;-85
2022/04/13 12:15:52;;;;;;;8.93;6.20;;;26.70;1.00;;;;;;5064286;28;20883;-85
2022/04/13 12:18:23;;;;;;;10.70;6.57;;;26.60;1.00;;;;;;5081076;28;20427;-86
2022/04/13 12:20:51;;;;;;;11.50;6.80;;;26.00;1.00;;;;;;5082242;28;20419;-84
2022/04/13 12:23:18;;;;;;;12.73;8.07;;;26.40;1.00;;;;;;5080398;28;20455;-86
2022/04/13 12:25:45;;;;;;;9.30;7.43;;;27.20;1.00;;;;;;5083301;28;20425;-86
2022/04/13 12:28:12;;;;;;;11.30;7.67;;;26.40;1.00;;;;;;5084716;28;20416;-84
2022/04/13 12:30:38;;;;;;;12.20;7.00;;;26.20;1.00;;;;;;5083958;28;20414;-86
2022/04/13 12:33:23;;;;;;;11.40;7.17;;;26.00;1.00;;;;;;5083731;28;20442;-84
2022/04/13 12:36:00;;;;;;;13.03;7.37;;;26.60;1.00;;;;;;5083040;28;20476;-85
2022/04/13 12:38:35;;;;;;;12.40;7.10;;;27.70;1.00;;;;;;5082745;28;20479;-84
2022/04/13 12:41:18;;;;;;;11.63;6.70;;;27.90;1.00;;;;;;5062962;28;20419;-85
2022/04/13 12:43:56;;;;;;;12.47;6.70;;;27.60;1.00;;;;;;5081737;28;20490;-85
2022/04/13 12:46:22;;;;;;;12.37;6.60;;;27.40;1.00;;;;;;5081324;28;20472;-84
2022/04/13 12:48:50;;;;;;;15.23;8.30;;;26.70;1.00;;;;;;5082291;28;20494;-84
2022/04/13 12:51:16;;;;;;;9.80;6.37;;;26.80;1.00;;;;;;5079390;28;20899;-83
2022/04/13 12:53:48;;;;;;;9.33;6.20;;;27.10;1.00;;;;;;5083326;28;20410;-84
2022/04/13 12:56:19;;;;;;;11.93;6.70;;;27.20;1.00;;;;;;5084054;28;20411;-85
2022/04/13 12:58:46;;;;;;;9.73;6.10;;;26.30;1.00;;;;;;5083171;28;20422;-85